createdAt,value
2018-12-27T00:00:04.767Z,78.49
2018-12-27T00:01:04.753Z,78.59
2018-12-27T00:02:04.743Z,78.66
2018-12-27T00:03:04.769Z,79.11
2018-12-27T00:04:04.722Z,78.76
2018-12-27T00:05:04.725Z,78.69
2018-12-27T00:06:04.711Z,77.75
2018-12-27T00:07:04.700Z,77.93
2018-12-27T00:08:05.696Z,78.03
2018-12-27T00:09:04.721Z,77.93
2018-12-27T00:10:04.655Z,77.65
2018-12-27T00:11:04.775Z,77.51
2018-12-27T00:12:04.639Z,77.61
2018-12-27T00:13:04.647Z,77.61
2018-12-27T00:14:04.641Z,78.24
2018-12-27T00:15:04.647Z,78.03
2018-12-27T00:16:04.591Z,78.03
2018-12-27T00:17:04.582Z,77.93
2018-12-27T00:18:04.569Z,78.03
2018-12-27T00:19:04.562Z,77.93
2018-12-27T00:20:04.570Z,78.34
2018-12-27T00:21:04.561Z,78.14
2018-12-27T00:22:04.529Z,78.45
2018-12-27T00:23:04.514Z,78.24
2018-12-27T00:24:04.508Z,78.03
2018-12-27T00:25:04.507Z,77.72
2018-12-27T00:26:04.511Z,77.61
2018-12-27T00:27:04.496Z,77.34
2018-12-27T00:28:04.459Z,77.83
2018-12-27T00:29:04.454Z,77.30
2018-12-27T00:30:04.446Z,77.61
2018-12-27T00:31:04.430Z,77.96
2018-12-27T00:32:04.510Z,77.61
2018-12-27T00:33:04.406Z,77.51
2018-12-27T00:34:04.396Z,78.03
2018-12-27T00:35:04.420Z,77.65
2018-12-27T00:36:04.407Z,77.61
2018-12-27T00:37:04.399Z,77.61
2018-12-27T00:38:04.357Z,77.61
2018-12-27T00:39:04.370Z,77.93
2018-12-27T00:40:04.347Z,77.83
2018-12-27T00:41:04.329Z,77.30
2018-12-27T00:42:04.310Z,77.13
2018-12-27T00:43:04.334Z,77.75
2018-12-27T00:44:04.300Z,77.61
2018-12-27T00:45:04.335Z,77.51
2018-12-27T00:46:04.267Z,77.30
2018-12-27T00:47:04.248Z,77.40
2018-12-27T00:48:04.279Z,77.40
2018-12-27T00:49:04.229Z,77.51
2018-12-27T00:50:04.230Z,77.30
2018-12-27T00:51:04.903Z,78.03
2018-12-27T00:52:04.213Z,77.09
2018-12-27T00:53:04.194Z,77.30
2018-12-27T00:54:04.198Z,77.30
2018-12-27T00:55:04.166Z,77.30
2018-12-27T00:56:04.158Z,76.78
2018-12-27T00:57:04.155Z,76.68
2018-12-27T00:58:04.161Z,77.30
2018-12-27T00:59:04.154Z,77.30
2018-12-27T01:00:04.130Z,77.27
2018-12-27T01:01:04.098Z,77.30
2018-12-27T01:02:04.090Z,77.37
2018-12-27T01:03:10.811Z,77.72
2018-12-27T01:04:05.090Z,77.48
2018-12-27T01:05:04.061Z,77.61
2018-12-27T01:06:04.050Z,77.93
2018-12-27T01:07:04.135Z,77.72
2018-12-27T01:08:04.025Z,78.14
2018-12-27T01:09:04.047Z,78.03
2018-12-27T01:10:04.004Z,77.61
2018-12-27T01:11:03.993Z,77.61
2018-12-27T01:12:03.994Z,77.40
2018-12-27T01:13:03.974Z,77.61
2018-12-27T01:14:03.962Z,77.30
2018-12-27T01:15:04.058Z,77.51
2018-12-27T01:16:03.983Z,77.72
2018-12-27T01:17:03.929Z,78.24
2018-12-27T01:18:03.920Z,77.93
2018-12-27T01:19:03.905Z,78.45
2018-12-27T01:20:03.898Z,78.86
2018-12-27T01:21:03.889Z,78.76
2018-12-27T01:22:03.892Z,78.76
2018-12-27T01:23:03.865Z,78.76
2018-12-27T01:24:03.853Z,78.66
2018-12-27T01:25:03.844Z,78.55
2018-12-27T01:26:03.841Z,78.76
2018-12-27T01:27:03.861Z,78.66
2018-12-27T01:28:03.935Z,78.34
2018-12-27T01:29:03.804Z,78.55
2018-12-27T01:30:03.791Z,78.55
2018-12-27T01:31:03.929Z,78.80
2018-12-27T01:32:03.764Z,78.97
2018-12-27T01:33:03.804Z,79.32
2018-12-27T01:34:03.750Z,79.17
2018-12-27T01:35:03.731Z,79.11
2018-12-27T01:36:03.719Z,78.97
2018-12-27T01:37:03.721Z,79.32
2018-12-27T01:38:03.704Z,79.11
2018-12-27T01:39:03.738Z,79.07
2018-12-27T01:40:03.695Z,79.21
2018-12-27T01:41:03.676Z,79.07
2018-12-27T01:42:03.660Z,79.28
2018-12-27T01:43:03.648Z,79.38
2018-12-27T01:44:03.632Z,79.07
2018-12-27T01:45:03.648Z,79.11
2018-12-27T01:46:03.622Z,78.97
2018-12-27T01:47:03.682Z,78.97
2018-12-27T01:48:03.589Z,79.00
2018-12-27T01:49:03.579Z,79.11
2018-12-27T01:50:03.571Z,79.11
2018-12-27T01:51:03.558Z,79.11
2018-12-27T01:52:03.572Z,79.00
2018-12-27T01:53:03.538Z,79.00
2018-12-27T01:54:03.527Z,79.00
2018-12-27T01:55:03.537Z,78.80
2018-12-27T01:56:03.507Z,78.80
2018-12-27T01:57:03.499Z,79.00
2018-12-27T01:58:03.485Z,78.80
2018-12-27T01:59:03.470Z,78.69
2018-12-27T02:00:03.456Z,78.59
2018-12-27T02:01:03.475Z,79.32
2018-12-27T02:02:03.467Z,79.52
2018-12-27T02:03:03.436Z,79.52
2018-12-27T02:04:03.418Z,79.42
2018-12-27T02:05:03.412Z,80.57
2018-12-27T02:06:03.397Z,80.26
2018-12-27T02:07:03.382Z,79.63
2018-12-27T02:08:03.583Z,79.63
2018-12-27T02:09:03.366Z,79.42
2018-12-27T02:10:03.360Z,79.63
2018-12-27T02:11:03.385Z,79.73
2018-12-27T02:12:03.353Z,79.83
2018-12-27T02:13:03.334Z,79.83
2018-12-27T02:14:03.334Z,80.05
2018-12-27T02:15:03.305Z,79.63
2018-12-27T02:16:03.301Z,79.52
2018-12-27T02:17:03.280Z,79.52
2018-12-27T02:18:03.268Z,79.73
2018-12-27T02:19:03.259Z,79.52
2018-12-27T02:20:03.264Z,80.57
2018-12-27T02:21:03.232Z,80.05
2018-12-27T02:22:03.217Z,80.26
2018-12-27T02:23:03.218Z,80.46
2018-12-27T02:24:03.369Z,80.46
2018-12-27T02:25:03.187Z,79.66
2018-12-27T02:26:03.185Z,80.26
2018-12-27T02:27:03.189Z,80.36
2018-12-27T02:28:03.157Z,80.19
2018-12-27T02:29:03.171Z,80.05
2018-12-27T02:30:03.178Z,79.63
2018-12-27T02:31:03.122Z,79.63
2018-12-27T02:32:03.132Z,79.42
2018-12-27T02:33:03.101Z,79.42
2018-12-27T02:34:03.090Z,79.73
2018-12-27T02:35:03.124Z,79.42
2018-12-27T02:36:03.100Z,79.21
2018-12-27T02:37:03.063Z,79.25
2018-12-27T02:38:03.047Z,78.80
2018-12-27T02:39:03.039Z,78.69
2018-12-27T02:40:03.029Z,79.32
2018-12-27T02:41:03.015Z,79.56
2018-12-27T02:42:03.030Z,79.00
2018-12-27T02:43:03.121Z,78.83
2018-12-27T02:44:02.989Z,79.11
2018-12-27T02:45:02.974Z,79.11
2018-12-27T02:46:02.986Z,79.04
2018-12-27T02:47:02.953Z,78.83
2018-12-27T02:48:02.940Z,78.80
2018-12-27T02:49:02.935Z,78.49
2018-12-27T02:50:02.924Z,79.04
2018-12-27T02:51:02.939Z,79.14
2018-12-27T02:52:02.892Z,79.04
2018-12-27T02:53:02.883Z,79.14
2018-12-27T02:54:02.879Z,79.14
2018-12-27T02:55:02.864Z,78.52
2018-12-27T02:56:02.859Z,78.73
2018-12-27T02:57:02.873Z,78.83
2018-12-27T02:58:02.830Z,78.63
2018-12-27T02:59:02.818Z,78.73
2018-12-27T03:00:02.803Z,79.04
2018-12-27T03:01:02.796Z,78.87
2018-12-27T03:02:02.819Z,78.87
2018-12-27T03:03:02.777Z,79.56
2018-12-27T03:04:02.808Z,79.66
2018-12-27T03:05:02.754Z,80.29
2018-12-27T03:06:02.768Z,80.22
2018-12-27T03:07:02.773Z,80.40
2018-12-27T03:08:02.750Z,80.64
2018-12-27T03:09:02.713Z,79.80
2018-12-27T03:10:02.713Z,79.80
2018-12-27T03:11:02.694Z,79.60
2018-12-27T03:12:02.688Z,79.70
2018-12-27T03:13:02.670Z,79.80
2018-12-27T03:14:02.687Z,79.91
2018-12-27T03:15:02.648Z,80.12
2018-12-27T03:16:02.643Z,80.02
2018-12-27T03:17:02.635Z,79.91
2018-12-27T03:18:02.641Z,80.47
2018-12-27T03:19:02.614Z,80.47
2018-12-27T03:20:02.594Z,80.47
2018-12-27T03:21:02.588Z,80.36
2018-12-27T03:22:02.573Z,80.16
2018-12-27T03:23:02.662Z,80.33
2018-12-27T03:24:02.574Z,79.94
2018-12-27T03:25:02.550Z,80.26
2018-12-27T03:26:02.525Z,80.68
2018-12-27T03:27:02.551Z,80.88
2018-12-27T03:28:02.512Z,80.88
2018-12-27T03:29:02.500Z,81.02
2018-12-27T03:30:02.511Z,80.78
2018-12-27T03:31:02.471Z,81.62
2018-12-27T03:32:02.480Z,81.86
2018-12-27T03:33:02.485Z,81.34
2018-12-27T03:34:02.438Z,81.86
2018-12-27T03:35:02.456Z,81.45
2018-12-27T03:36:02.414Z,81.23
2018-12-27T03:37:02.413Z,81.55
2018-12-27T03:38:02.403Z,81.86
2018-12-27T03:39:02.430Z,81.65
2018-12-27T03:40:02.374Z,82.00
2018-12-27T03:41:02.393Z,82.07
2018-12-27T03:42:02.351Z,82.17
2018-12-27T03:43:02.344Z,82.17
2018-12-27T03:44:02.503Z,82.21
2018-12-27T03:45:02.317Z,82.00
2018-12-27T03:46:02.348Z,82.00
2018-12-27T03:47:02.326Z,82.10
2018-12-27T03:48:02.287Z,81.90
2018-12-27T03:49:02.276Z,82.10
2018-12-27T03:50:02.273Z,82.00
2018-12-27T03:51:02.283Z,82.21
2018-12-27T03:52:02.244Z,82.10
2018-12-27T03:53:02.232Z,82.00
2018-12-27T03:54:02.222Z,81.90
2018-12-27T03:55:02.211Z,82.53
2018-12-27T03:56:02.206Z,82.42
2018-12-27T03:57:02.237Z,82.53
2018-12-27T03:58:02.176Z,82.42
2018-12-27T03:59:02.169Z,82.14
2018-12-27T04:00:02.211Z,81.90
2018-12-27T04:01:02.140Z,82.00
2018-12-27T04:02:02.140Z,82.00
2018-12-27T04:03:02.175Z,82.21
2018-12-27T04:04:02.112Z,82.21
2018-12-27T04:05:02.101Z,82.21
2018-12-27T04:06:02.092Z,81.79
2018-12-27T04:07:02.079Z,82.10
2018-12-27T04:08:02.073Z,82.10
2018-12-27T04:09:02.079Z,81.90
2018-12-27T04:10:02.082Z,82.21
2018-12-27T04:11:02.037Z,82.31
2018-12-27T04:12:02.052Z,82.10
2018-12-27T04:13:02.049Z,82.53
2018-12-27T04:14:02.001Z,82.73
2018-12-27T04:15:02.030Z,83.04
2018-12-27T04:16:01.981Z,82.77
2018-12-27T04:17:01.975Z,82.35
2018-12-27T04:18:01.961Z,83.18
2018-12-27T04:19:09.511Z,82.98
2018-12-27T04:20:01.942Z,83.29
2018-12-27T04:21:01.933Z,82.87
2018-12-27T04:22:01.918Z,83.08
2018-12-27T04:23:01.908Z,83.40
2018-12-27T04:24:01.921Z,83.18
2018-12-27T04:25:01.886Z,83.95
2018-12-27T04:26:01.870Z,83.12
2018-12-27T04:27:01.859Z,84.27
2018-12-27T04:28:01.869Z,83.95
2018-12-27T04:33:40.654Z,84.52
2018-12-27T04:34:40.612Z,84.73
2018-12-27T04:35:40.623Z,84.31
2018-12-27T04:36:40.581Z,84.83
2018-12-27T04:37:40.568Z,84.41
2018-12-27T04:38:40.554Z,84.10
2018-12-27T04:39:47.636Z,84.10
2018-12-27T04:40:40.553Z,84.83
2018-12-27T04:41:40.526Z,84.73
2018-12-27T04:42:40.543Z,84.41
2018-12-27T04:43:40.507Z,84.20
2018-12-27T04:44:40.492Z,84.62
2018-12-27T04:45:40.481Z,84.58
2018-12-27T04:46:41.341Z,84.52
2018-12-27T04:47:40.482Z,84.73
2018-12-27T04:48:40.444Z,84.27
2018-12-27T04:49:40.444Z,84.06
2018-12-27T04:50:40.448Z,84.27
2018-12-27T04:51:40.410Z,83.75
2018-12-27T04:52:40.430Z,83.75
2018-12-27T04:53:40.413Z,83.95
2018-12-27T04:54:40.458Z,84.06
2018-12-27T04:55:40.379Z,83.85
2018-12-27T04:56:40.366Z,83.64
2018-12-27T04:57:40.343Z,83.85
2018-12-27T04:58:40.349Z,83.33
2018-12-27T04:59:40.345Z,83.01
2018-12-27T05:00:40.319Z,83.08
2018-12-27T05:01:40.300Z,83.01
2018-12-27T05:02:40.290Z,83.23
2018-12-27T05:03:40.292Z,82.67
2018-12-27T05:04:40.301Z,82.98
2018-12-27T05:05:40.290Z,82.77
2018-12-27T05:06:40.255Z,83.29
2018-12-27T05:07:40.233Z,83.61
2018-12-27T05:08:40.227Z,82.98
2018-12-27T05:09:40.240Z,82.77
2018-12-27T05:10:40.318Z,82.35
2018-12-27T05:11:40.213Z,82.98
2018-12-27T05:12:40.183Z,82.25
2018-12-27T05:13:40.207Z,82.87
2018-12-27T05:14:40.287Z,82.67
2018-12-27T05:15:40.156Z,83.61
2018-12-27T05:16:40.172Z,82.77
2018-12-27T05:17:40.122Z,82.67
2018-12-27T05:18:40.137Z,82.67
2018-12-27T05:19:40.107Z,82.56
2018-12-27T05:20:40.099Z,82.46
2018-12-27T05:21:40.114Z,82.46
2018-12-27T05:22:40.101Z,82.04
2018-12-27T05:23:40.149Z,82.14
2018-12-27T05:24:40.046Z,82.14
2018-12-27T05:25:40.080Z,82.25
2018-12-27T05:26:40.079Z,82.04
2018-12-27T05:27:40.016Z,81.93
2018-12-27T05:28:40.007Z,82.46
2018-12-27T05:29:40.002Z,82.25
2018-12-27T05:30:39.988Z,81.83
2018-12-27T05:31:40.000Z,81.31
2018-12-27T05:32:39.962Z,81.10
2018-12-27T05:33:39.982Z,81.52
2018-12-27T05:34:39.947Z,81.73
2018-12-27T05:35:39.948Z,81.83
2018-12-27T05:36:39.920Z,81.62
2018-12-27T05:37:39.914Z,81.73
2018-12-27T05:38:39.899Z,81.62
2018-12-27T05:39:40.068Z,82.04
2018-12-27T05:40:39.878Z,81.90
2018-12-27T05:41:39.872Z,81.93
2018-12-27T05:42:39.875Z,82.04
2018-12-27T05:43:39.850Z,81.59
2018-12-27T05:44:39.862Z,82.10
2018-12-27T05:45:39.823Z,80.85
2018-12-27T05:46:39.811Z,81.16
2018-12-27T05:47:39.906Z,80.44
2018-12-27T05:48:39.822Z,80.65
2018-12-27T05:49:39.774Z,80.54
2018-12-27T05:50:39.764Z,80.96
2018-12-27T05:51:39.766Z,80.75
2018-12-27T05:52:39.740Z,80.68
2018-12-27T05:53:39.762Z,80.47
2018-12-27T05:54:39.725Z,80.79
2018-12-27T05:55:39.715Z,80.75
2018-12-27T05:56:39.705Z,80.65
2018-12-27T05:57:39.692Z,80.79
2018-12-27T05:58:39.708Z,80.54
2018-12-27T05:59:39.692Z,80.85
2018-12-27T06:00:41.161Z,80.89
2018-12-27T06:01:39.641Z,80.96
2018-12-27T06:02:39.638Z,80.89
2018-12-27T06:03:39.638Z,80.79
2018-12-27T06:04:39.651Z,80.99
2018-12-27T06:05:39.611Z,80.89
2018-12-27T06:06:39.715Z,80.27
2018-12-27T06:07:39.575Z,80.16
2018-12-27T06:08:39.566Z,80.27
2018-12-27T06:09:39.558Z,80.37
2018-12-27T06:10:39.572Z,80.99
2018-12-27T06:11:39.536Z,80.68
2018-12-27T06:12:39.526Z,80.89
2018-12-27T06:13:39.510Z,80.89
2018-12-27T06:14:39.514Z,81.21
2018-12-27T06:15:39.493Z,80.82
2018-12-27T06:16:39.503Z,81.03
2018-12-27T06:17:39.473Z,81.93
2018-12-27T06:18:39.460Z,81.62
2018-12-27T06:19:39.501Z,81.56
2018-12-27T06:20:39.443Z,81.56
2018-12-27T06:21:39.423Z,81.56
2018-12-27T06:22:39.499Z,82.07
2018-12-27T06:23:39.401Z,82.07
2018-12-27T06:24:39.388Z,82.29
2018-12-27T06:25:39.422Z,81.87
2018-12-27T06:26:39.366Z,81.90
2018-12-27T06:27:39.398Z,82.12
2018-12-27T06:28:39.348Z,82.22
2018-12-27T06:29:39.343Z,82.64
2018-12-27T06:30:39.332Z,82.95
2018-12-27T06:31:39.313Z,83.58
2018-12-27T06:32:39.302Z,83.09
2018-12-27T06:33:39.319Z,83.06
2018-12-27T06:34:41.467Z,82.99
2018-12-27T06:35:39.266Z,82.53
2018-12-27T06:36:39.256Z,82.99
2018-12-27T06:37:39.280Z,83.40
2018-12-27T06:38:39.235Z,83.09
2018-12-27T06:39:39.225Z,83.09
2018-12-27T06:40:39.211Z,83.44
2018-12-27T06:41:39.205Z,83.13
2018-12-27T06:42:39.200Z,83.62
2018-12-27T06:43:39.343Z,83.97
2018-12-27T06:44:39.171Z,84.07
2018-12-27T06:45:39.159Z,83.76
2018-12-27T06:46:39.190Z,84.39
2018-12-27T06:47:39.148Z,84.07
2018-12-27T06:48:39.133Z,84.70
2018-12-27T06:49:39.155Z,84.49
2018-12-27T06:50:39.104Z,84.74
2018-12-27T06:51:39.098Z,85.05
2018-12-27T06:52:39.084Z,85.36
2018-12-27T06:53:39.069Z,85.16
2018-12-27T06:54:39.063Z,85.82
2018-12-27T06:55:39.078Z,85.41
2018-12-27T06:56:39.044Z,86.35
2018-12-27T06:57:39.061Z,86.24
2018-12-27T06:58:39.018Z,86.14
2018-12-27T06:59:39.173Z,85.82
2018-12-27T07:00:39.001Z,86.66
2018-12-27T07:01:39.025Z,86.24
2018-12-27T07:02:38.988Z,85.93
2018-12-27T07:03:38.965Z,86.45
2018-12-27T07:04:38.959Z,86.55
2018-12-27T07:05:38.941Z,86.24
2018-12-27T07:06:38.935Z,86.45
2018-12-27T07:07:38.941Z,86.87
2018-12-27T07:08:38.916Z,87.29
2018-12-27T07:09:38.917Z,86.66
2018-12-27T07:10:38.883Z,86.77
2018-12-27T07:11:38.902Z,86.91
2018-12-27T07:12:38.873Z,87.08
2018-12-27T07:13:38.919Z,87.08
2018-12-27T07:14:38.855Z,87.08
2018-12-27T07:15:38.946Z,87.60
2018-12-27T07:16:38.820Z,87.64
2018-12-27T07:17:38.834Z,87.71
2018-12-27T07:18:38.808Z,87.60
2018-12-27T07:19:38.795Z,87.39
2018-12-27T07:20:38.811Z,87.54
2018-12-27T07:21:38.769Z,87.54
2018-12-27T07:22:38.781Z,87.60
2018-12-27T07:23:38.745Z,87.60
2018-12-27T07:24:38.734Z,87.71
2018-12-27T07:25:38.735Z,87.50
2018-12-27T07:26:38.716Z,87.71
2018-12-27T07:27:38.733Z,87.60
2018-12-27T07:28:38.688Z,87.54
2018-12-27T07:29:38.680Z,87.85
2018-12-27T07:30:38.665Z,87.85
2018-12-27T07:31:38.663Z,87.74
2018-12-27T07:32:38.655Z,87.18
2018-12-27T07:33:38.659Z,87.08
2018-12-27T07:34:38.627Z,87.60
2018-12-27T07:35:38.626Z,87.81
2018-12-27T07:36:38.602Z,87.39
2018-12-27T07:37:38.596Z,86.98
2018-12-27T07:38:38.611Z,86.87
2018-12-27T07:39:38.785Z,86.45
2018-12-27T07:40:38.554Z,86.66
2018-12-27T07:41:38.544Z,86.45
2018-12-27T07:42:38.572Z,86.45
2018-12-27T07:43:38.530Z,86.24
2018-12-27T07:44:38.544Z,86.41
2018-12-27T07:45:38.524Z,86.41
2018-12-27T07:46:38.493Z,86.41
2018-12-27T07:47:38.483Z,86.52
2018-12-27T07:48:38.483Z,86.72
2018-12-27T07:49:38.466Z,85.68
2018-12-27T07:50:38.478Z,86.20
2018-12-27T07:51:38.453Z,86.10
2018-12-27T07:52:38.429Z,86.10
2018-12-27T07:53:38.422Z,86.10
2018-12-27T07:54:38.417Z,85.89
2018-12-27T07:55:38.577Z,86.20
2018-12-27T07:56:38.380Z,85.99
2018-12-27T07:57:38.418Z,86.20
2018-12-27T07:58:38.412Z,86.06
2018-12-27T07:59:38.352Z,86.37
2018-12-27T08:00:38.375Z,86.06
2018-12-27T08:01:38.325Z,86.16
2018-12-27T08:02:38.319Z,86.41
2018-12-27T08:03:38.306Z,86.20
2018-12-27T08:04:38.293Z,86.10
2018-12-27T08:05:38.294Z,86.16
2018-12-27T08:06:38.306Z,86.58
2018-12-27T08:07:38.281Z,85.47
2018-12-27T08:08:38.262Z,86.47
2018-12-27T08:09:38.259Z,87.73
2018-12-27T08:10:38.253Z,87.59
2018-12-27T08:11:38.352Z,86.90
2018-12-27T08:12:38.210Z,86.79
2018-12-27T08:13:38.193Z,86.37
2018-12-27T08:14:38.185Z,86.23
2018-12-27T08:15:38.174Z,86.27
2018-12-27T08:16:38.193Z,86.33
2018-12-27T08:17:38.149Z,86.75
2018-12-27T08:18:38.139Z,87.10
2018-12-27T08:19:38.191Z,86.65
2018-12-27T08:20:38.128Z,86.33
2018-12-27T08:21:38.106Z,86.44
2018-12-27T08:22:38.145Z,86.23
2018-12-27T08:23:38.086Z,86.23
2018-12-27T08:24:38.076Z,86.23
2018-12-27T08:25:38.061Z,86.65
2018-12-27T08:26:38.087Z,86.13
2018-12-27T08:27:38.059Z,86.33
2018-12-27T08:28:38.044Z,86.54
2018-12-27T08:29:38.021Z,86.02
2018-12-27T08:30:38.018Z,85.60
2018-12-27T08:31:37.993Z,85.50
2018-12-27T08:32:38.013Z,85.04
2018-12-27T08:33:37.997Z,85.08
2018-12-27T08:34:37.973Z,85.25
2018-12-27T08:35:37.989Z,84.62
2018-12-27T08:36:37.951Z,84.62
2018-12-27T08:37:37.961Z,84.20
2018-12-27T08:38:37.955Z,83.58
2018-12-27T08:39:37.915Z,83.64
2018-12-27T08:40:37.910Z,83.78
2018-12-27T08:41:37.893Z,82.81
2018-12-27T08:42:37.878Z,82.50
2018-12-27T08:43:37.909Z,82.60
2018-12-27T08:44:37.855Z,82.91
2018-12-27T08:45:37.874Z,82.46
2018-12-27T08:46:37.829Z,82.77
2018-12-27T08:47:37.847Z,82.14
2018-12-27T08:48:37.813Z,82.77
2018-12-27T08:49:37.815Z,82.56
2018-12-27T08:50:37.798Z,82.14
2018-12-27T08:51:37.848Z,81.69
2018-12-27T08:52:37.762Z,82.00
2018-12-27T08:53:37.784Z,81.83
2018-12-27T08:54:37.804Z,81.59
2018-12-27T08:55:37.741Z,82.00
2018-12-27T08:56:37.722Z,81.16
2018-12-27T08:57:37.740Z,80.54
2018-12-27T08:58:37.709Z,80.33
2018-12-27T08:59:37.712Z,80.33
2018-12-27T09:00:37.677Z,80.13
2018-12-27T09:01:37.675Z,80.33
2018-12-27T09:02:37.658Z,80.54
2018-12-27T09:03:37.655Z,80.44
2018-12-27T09:04:37.666Z,80.71
2018-12-27T09:05:37.628Z,80.40
2018-12-27T09:06:37.647Z,80.30
2018-12-27T09:07:37.617Z,79.88
2018-12-27T09:08:37.599Z,80.61
2018-12-27T09:09:37.585Z,80.82
2018-12-27T09:10:37.602Z,80.26
2018-12-27T09:11:37.555Z,80.88
2018-12-27T09:12:37.578Z,80.40
2018-12-27T09:13:37.542Z,80.36
2018-12-27T09:14:37.530Z,79.74
2018-12-27T09:15:37.682Z,78.91
2018-12-27T09:16:37.535Z,80.12
2018-12-27T09:17:37.496Z,79.91
2018-12-27T09:18:37.543Z,79.49
2018-12-27T09:19:37.477Z,78.77
2018-12-27T09:20:37.466Z,79.25
2018-12-27T09:21:37.466Z,78.77
2018-12-27T09:22:37.456Z,78.63
2018-12-27T09:23:37.429Z,78.00
2018-12-27T09:24:37.435Z,77.79
2018-12-27T09:25:37.420Z,77.37
2018-12-27T09:26:37.397Z,77.17
2018-12-27T09:27:37.388Z,76.75
2018-12-27T09:28:37.380Z,76.86
2018-12-27T09:29:37.397Z,76.72
2018-12-27T09:30:37.359Z,76.92
2018-12-27T09:31:37.344Z,76.30
2018-12-27T09:32:37.340Z,76.40
2018-12-27T09:33:37.321Z,76.30
2018-12-27T09:34:37.879Z,76.09
2018-12-27T09:35:37.313Z,76.20
2018-12-27T09:36:37.304Z,76.20
2018-12-27T09:37:37.356Z,75.64
2018-12-27T09:38:37.269Z,75.54
2018-12-27T09:39:37.273Z,74.80
2018-12-27T09:40:37.240Z,74.91
2018-12-27T09:41:37.224Z,74.80
2018-12-27T09:42:37.233Z,74.57
2018-12-27T09:43:37.239Z,73.94
2018-12-27T09:44:37.225Z,73.42
2018-12-27T09:45:37.225Z,74.11
2018-12-27T09:46:37.169Z,74.01
2018-12-27T09:47:37.163Z,74.11
2018-12-27T09:48:37.154Z,73.91
2018-12-27T09:49:37.148Z,73.91
2018-12-27T09:50:37.176Z,73.91
2018-12-27T09:51:37.123Z,73.80
2018-12-27T09:52:37.186Z,74.11
2018-12-27T09:53:37.099Z,73.35
2018-12-27T09:54:37.093Z,72.31
2018-12-27T09:55:37.088Z,72.21
2018-12-27T09:56:37.101Z,71.90
2018-12-27T09:57:37.049Z,71.28
2018-12-27T09:58:37.180Z,70.86
2018-12-27T09:59:37.032Z,71.55
2018-12-27T10:00:37.021Z,70.72
2018-12-27T10:01:37.014Z,70.41
2018-12-27T10:02:37.016Z,69.89
2018-12-27T10:03:36.992Z,70.62
2018-12-27T10:04:36.977Z,70.00
2018-12-27T10:05:36.963Z,69.96
2018-12-27T10:06:36.962Z,70.28
2018-12-27T10:07:36.959Z,69.45
2018-12-27T10:08:37.018Z,69.55
2018-12-27T10:09:36.924Z,69.03
2018-12-27T10:10:36.915Z,68.62
2018-12-27T10:11:36.904Z,68.30
2018-12-27T10:12:36.890Z,68.59
2018-12-27T10:13:36.879Z,67.96
2018-12-27T10:14:36.980Z,67.44
2018-12-27T10:15:36.887Z,67.34
2018-12-27T10:16:36.848Z,67.44
2018-12-27T10:17:36.945Z,67.65
2018-12-27T10:18:36.827Z,66.93
2018-12-27T10:19:36.846Z,67.41
2018-12-27T10:20:36.811Z,67.20
2018-12-27T10:21:36.803Z,67.34
2018-12-27T10:22:36.777Z,66.99
2018-12-27T10:23:36.769Z,66.82
2018-12-27T10:24:36.773Z,66.89
2018-12-27T10:25:36.748Z,66.89
2018-12-27T10:26:36.743Z,66.99
2018-12-27T10:27:36.717Z,66.41
2018-12-27T10:28:36.710Z,66.17
2018-12-27T10:29:36.704Z,67.10
2018-12-27T10:30:36.721Z,68.34
2018-12-27T10:31:36.683Z,68.34
2018-12-27T10:32:36.676Z,67.10
2018-12-27T10:33:36.660Z,66.68
2018-12-27T10:34:36.658Z,66.38
2018-12-27T10:35:41.124Z,66.06
2018-12-27T10:36:36.640Z,66.06
2018-12-27T10:37:36.615Z,66.06
2018-12-27T10:38:36.596Z,66.38
2018-12-27T10:39:36.598Z,66.58
2018-12-27T10:40:43.675Z,66.38
2018-12-27T10:41:36.656Z,66.27
2018-12-27T10:42:36.559Z,66.47
2018-12-27T10:43:36.551Z,66.55
2018-12-27T10:44:36.661Z,65.65
2018-12-27T10:45:36.517Z,66.38
2018-12-27T10:46:36.516Z,66.17
2018-12-27T10:47:36.523Z,66.27
2018-12-27T10:48:36.488Z,66.38
2018-12-27T10:49:36.486Z,66.55
2018-12-27T10:50:36.462Z,66.55
2018-12-27T10:51:36.452Z,66.58
2018-12-27T10:52:36.441Z,66.99
2018-12-27T10:53:36.463Z,66.96
2018-12-27T10:54:36.423Z,66.96
2018-12-27T10:55:36.407Z,66.44
2018-12-27T10:56:36.408Z,65.93
2018-12-27T10:57:36.588Z,66.35
2018-12-27T10:58:36.391Z,65.52
2018-12-27T10:59:36.394Z,66.03
2018-12-27T11:00:36.386Z,66.55
2018-12-27T11:01:36.344Z,66.55
2018-12-27T11:02:36.335Z,65.83
2018-12-27T11:03:36.350Z,66.44
2018-12-27T11:04:36.325Z,66.24
2018-12-27T11:05:36.316Z,66.44
2018-12-27T11:06:36.305Z,66.44
2018-12-27T11:07:36.276Z,66.35
2018-12-27T11:08:36.264Z,66.14
2018-12-27T11:09:36.274Z,65.72
2018-12-27T11:10:36.275Z,66.14
2018-12-27T11:11:36.233Z,66.44
2018-12-27T11:12:36.222Z,65.83
2018-12-27T11:13:36.219Z,66.24
2018-12-27T11:14:36.215Z,66.14
2018-12-27T11:15:36.208Z,66.21
2018-12-27T11:16:36.224Z,65.59
2018-12-27T11:17:36.190Z,65.69
2018-12-27T11:18:36.193Z,65.90
2018-12-27T11:19:36.141Z,65.35
2018-12-27T11:20:36.141Z,65.07
2018-12-27T11:21:36.127Z,64.94
2018-12-27T11:22:36.147Z,64.94
2018-12-27T11:23:36.104Z,65.77
2018-12-27T11:24:36.149Z,66.38
2018-12-27T11:25:36.083Z,66.38
2018-12-27T11:26:36.076Z,65.77
2018-12-27T11:27:36.086Z,65.53
2018-12-27T11:28:36.069Z,64.90
2018-12-27T11:29:36.034Z,65.01
2018-12-27T11:30:36.078Z,65.22
2018-12-27T11:31:36.024Z,65.01
2018-12-27T11:32:36.000Z,64.80
2018-12-27T11:33:36.001Z,65.01
2018-12-27T11:34:36.013Z,64.49
2018-12-27T11:35:35.969Z,64.28
2018-12-27T11:36:35.967Z,64.49
2018-12-27T11:37:35.972Z,64.70
2018-12-27T11:38:35.934Z,64.80
2018-12-27T11:39:35.972Z,64.67
2018-12-27T11:40:35.937Z,64.67
2018-12-27T11:41:35.909Z,64.46
2018-12-27T11:42:35.914Z,64.56
2018-12-27T11:43:35.876Z,64.36
2018-12-27T11:44:35.884Z,64.04
2018-12-27T11:45:35.863Z,63.95
2018-12-27T11:46:35.852Z,64.15
2018-12-27T11:47:35.862Z,64.04
2018-12-27T11:48:35.821Z,63.84
2018-12-27T11:49:35.808Z,64.15
2018-12-27T11:50:35.839Z,63.95
2018-12-27T11:51:35.786Z,63.95
2018-12-27T11:52:35.784Z,64.02
2018-12-27T11:53:35.784Z,63.92
2018-12-27T11:54:35.761Z,64.32
2018-12-27T11:55:35.788Z,64.43
2018-12-27T11:56:35.894Z,64.23
2018-12-27T11:57:35.736Z,63.99
2018-12-27T11:58:35.714Z,63.92
2018-12-27T11:59:35.714Z,63.81
2018-12-27T12:00:35.688Z,64.12
2018-12-27T12:01:35.714Z,64.02
2018-12-27T12:02:35.666Z,63.92
2018-12-27T12:03:35.655Z,63.89
2018-12-27T12:04:35.643Z,64.20
2018-12-27T12:05:35.638Z,63.78
2018-12-27T12:06:35.652Z,64.09
2018-12-27T12:07:35.654Z,63.99
2018-12-27T12:08:35.595Z,63.78
2018-12-27T12:09:35.619Z,62.98
2018-12-27T12:10:35.574Z,63.16
2018-12-27T12:11:35.568Z,64.09
2018-12-27T12:12:35.550Z,63.92
2018-12-27T12:13:35.545Z,63.26
2018-12-27T12:14:35.532Z,64.09
2018-12-27T12:15:35.566Z,64.20
2018-12-27T12:16:35.554Z,63.99
2018-12-27T12:17:35.495Z,63.26
2018-12-27T12:18:35.486Z,63.06
2018-12-27T12:19:35.472Z,63.06
2018-12-27T12:20:35.822Z,63.26
2018-12-27T12:21:35.448Z,63.26
2018-12-27T12:22:35.467Z,62.95
2018-12-27T12:23:35.433Z,63.06
2018-12-27T12:24:35.430Z,63.54
2018-12-27T12:25:35.407Z,63.06
2018-12-27T12:26:35.396Z,65.61
2018-12-27T12:27:35.394Z,66.03
2018-12-27T12:28:35.406Z,64.99
2018-12-27T12:29:35.363Z,64.06
2018-12-27T12:30:35.350Z,63.44
2018-12-27T12:31:35.338Z,62.79
2018-12-27T12:32:35.414Z,63.72
2018-12-27T12:33:35.347Z,62.62
2018-12-27T12:34:35.304Z,63.34
2018-12-27T12:35:35.292Z,62.79
2018-12-27T12:36:35.289Z,61.76
2018-12-27T12:37:35.320Z,61.79
2018-12-27T12:38:35.271Z,62.07
2018-12-27T12:39:35.369Z,61.79
2018-12-27T12:40:35.240Z,62.07
2018-12-27T12:41:35.236Z,62.17
2018-12-27T12:42:35.225Z,62.27
2018-12-27T12:43:35.205Z,62.27
2018-12-27T12:44:35.198Z,62.27
2018-12-27T12:45:35.225Z,62.30
2018-12-27T12:46:35.174Z,61.89
2018-12-27T12:47:35.160Z,62.07
2018-12-27T12:48:35.161Z,61.79
2018-12-27T12:49:35.137Z,62.62
2018-12-27T12:50:35.137Z,62.82
2018-12-27T12:51:35.166Z,62.41
2018-12-27T12:52:35.102Z,62.20
2018-12-27T12:53:35.090Z,62.82
2018-12-27T12:54:35.087Z,62.93
2018-12-27T12:55:35.073Z,62.72
2018-12-27T12:56:35.082Z,63.23